KCRE/CRE METAR and TAF weather

Enter ICAO airport designator
Station Type Date Time Source
KCRE METAR 2021/04/18 02:53 UTC NOAA

KCRE 180253Z AUTO 21008KT 10SM BKN085 17/13 A2984 RMK AO1 SLP106 T01720128 51005


Station Type Date Time Source
KCRE Decoded METAR 2021/04/18 02:53 UTC NOAA

N. MYRTLE BCH.GRAND STRAND, SC, United States (KCRE) 33-49N 078-43W 10M
Apr 17, 2021 - 10:53 PM EDT / 2021.04.18 0253 UTC
Wind: from the SSW (210 degrees) at 9 MPH (8 KT):0
Visibility: 10 mile(s):0
Sky conditions: mostly cloudy
Temperature: 63.0 F (17.2 C)
Dew Point: 55.0 F (12.8 C)
Relative Humidity: 75%
Pressure (altimeter): 29.84 in. Hg (1010 hPa)
Pressure tendency: 0.01 inches (0.5 hPa) higher than three hours ago
ob: KCRE 180253Z AUTO 21008KT 10SM BKN085 17/13 A2984 RMK AO1 SLP106 T01720128 51005
cycle: 3

Station Type Date Time Source
KCRE TAF 2021/04/17 19:16 UTC NOAA

TAF
AMD KCRE 171914Z 1719/1818 16009KT P6SM SCT150
FM180700 VRB04KT P6SM BKN070
FM181700 13007KT P6SM SCT150

Example: see airport list